BTY002 GMME-GCTS
Flight info
| Callsign | BTY002 |
|---|---|
| Flight time | 2h 10m |
| Altitude | 35000 |
| Route | BISMI UB11 PELAX/N0454F370 UB11 MABAP DCT RUSIK |
| Aircraft | A320/M-SDE3FGHIRWY/LB1 |
Departure
| Time | 2026-05-08 06:36 |
|---|---|
| Airport | Rabat-Salé Airport (GMME) |
Arrival
| Time | 2026-05-08 08:46 |
|---|---|
| Airport | Tenerife Sur Airport (GCTS) |
| Time | Latitude | Longitude | Altitude | Speed | Heading |
|---|---|---|---|---|---|
| 2026-05-08 06:17 | 34.03742 | -6.74892 | 268 ft | 0 kts | 179° |
| 2026-05-08 06:28 | 34.03761 | -6.74892 | 268 ft | 4 kts | 179° |
| 2026-05-08 06:29 | 34.03788 | -6.74892 | 268 ft | 4 kts | 179° |
| 2026-05-08 06:29 | 34.03814 | -6.74896 | 268 ft | 4 kts | 175° |
| 2026-05-08 06:29 | 34.03829 | -6.74893 | 268 ft | 1 kts | 239° |
| 2026-05-08 06:29 | 34.03831 | -6.74889 | 268 ft | 0 kts | 239° |
| 2026-05-08 06:31 | 34.03813 | -6.74946 | 268 ft | 16 kts | 261° |
| 2026-05-08 06:32 | 34.03833 | -6.75079 | 268 ft | 17 kts | 298° |
| 2026-05-08 06:32 | 34.03896 | -6.75205 | 268 ft | 19 kts | 301° |
| 2026-05-08 06:32 | 34.03966 | -6.75343 | 268 ft | 20 kts | 301° |
| 2026-05-08 06:32 | 34.04039 | -6.75489 | 268 ft | 21 kts | 301° |
| 2026-05-08 06:33 | 34.04094 | -6.75651 | 269 ft | 20 kts | 247° |
| 2026-05-08 06:33 | 34.03981 | -6.75748 | 269 ft | 21 kts | 213° |
| 2026-05-08 06:33 | 34.03856 | -6.75842 | 269 ft | 22 kts | 211° |
| 2026-05-08 06:33 | 34.03730 | -6.75938 | 270 ft | 19 kts | 223° |
| 2026-05-08 06:34 | 34.03757 | -6.76065 | 274 ft | 16 kts | 324° |
| 2026-05-08 06:34 | 34.03860 | -6.76087 | 275 ft | 15 kts | 9° |
| 2026-05-08 06:34 | 34.03902 | -6.76063 | 274 ft | 0 kts | 30° |
| 2026-05-08 06:35 | 34.04035 | -6.75967 | 270 ft | 61 kts | 31° |
| 2026-05-08 06:35 | 34.04602 | -6.75550 | 266 ft | 125 kts | 31° |
| 2026-05-08 06:35 | 34.05515 | -6.74947 | 377 ft | 162 kts | 30° |
| 2026-05-08 06:35 | 34.06489 | -6.74162 | 696 ft | 185 kts | 34° |
| 2026-05-08 06:36 | 34.07581 | -6.73177 | 1150 ft | 199 kts | 32° |
| 2026-05-08 06:36 | 34.08753 | -6.72249 | 1888 ft | 203 kts | 33° |
| 2026-05-08 06:36 | 34.09985 | -6.71285 | 2391 ft | 220 kts | 31° |
| 2026-05-08 06:36 | 34.11338 | -6.70340 | 3121 ft | 227 kts | 30° |
| 2026-05-08 06:37 | 34.12719 | -6.69410 | 3897 ft | 232 kts | 30° |
| 2026-05-08 06:37 | 34.14144 | -6.68440 | 4700 ft | 237 kts | 30° |
| 2026-05-08 06:37 | 34.15594 | -6.67434 | 5476 ft | 242 kts | 30° |
| 2026-05-08 06:37 | 34.17071 | -6.66387 | 6242 ft | 249 kts | 30° |
| 2026-05-08 06:38 | 34.18490 | -6.65197 | 6921 ft | 256 kts | 47° |
| 2026-05-08 06:38 | 34.19342 | -6.63314 | 7629 ft | 259 kts | 81° |
| 2026-05-08 06:38 | 34.19278 | -6.61114 | 8065 ft | 273 kts | 113° |
| 2026-05-08 06:38 | 34.18278 | -6.59110 | 8532 ft | 284 kts | 130° |
| 2026-05-08 06:39 | 34.17087 | -6.57166 | 9311 ft | 291 kts | 130° |
| 2026-05-08 06:39 | 34.15882 | -6.55183 | 10102 ft | 295 kts | 130° |
| 2026-05-08 06:39 | 34.14596 | -6.53229 | 10812 ft | 297 kts | 140° |
| 2026-05-08 06:39 | 34.12954 | -6.51737 | 11516 ft | 295 kts | 157° |
| 2026-05-08 06:40 | 34.11069 | -6.50890 | 12236 ft | 292 kts | 173° |
| 2026-05-08 06:40 | 34.09051 | -6.50703 | 12970 ft | 290 kts | 188° |
| 2026-05-08 06:40 | 34.07024 | -6.50863 | 13716 ft | 293 kts | 189° |
| 2026-05-08 06:40 | 34.04977 | -6.51025 | 14378 ft | 296 kts | 189° |
| 2026-05-08 06:41 | 34.02909 | -6.51188 | 15029 ft | 299 kts | 189° |
| 2026-05-08 06:41 | 34.00819 | -6.51350 | 15694 ft | 302 kts | 189° |
| 2026-05-08 06:41 | 33.98750 | -6.51624 | 16340 ft | 301 kts | 199° |
| 2026-05-08 06:41 | 33.96797 | -6.52459 | 16993 ft | 296 kts | 212° |
| 2026-05-08 06:42 | 33.95107 | -6.53847 | 17668 ft | 293 kts | 226° |
| 2026-05-08 06:42 | 33.93648 | -6.55562 | 18337 ft | 294 kts | 228° |
| 2026-05-08 06:42 | 33.92182 | -6.57294 | 18914 ft | 296 kts | 228° |
| 2026-05-08 06:42 | 33.90706 | -6.59027 | 19491 ft | 297 kts | 228° |
| 2026-05-08 06:43 | 33.89219 | -6.60769 | 20060 ft | 299 kts | 228° |
| 2026-05-08 06:43 | 33.87737 | -6.62502 | 20615 ft | 301 kts | 228° |
| 2026-05-08 06:43 | 33.86225 | -6.64271 | 21196 ft | 303 kts | 228° |
| 2026-05-08 06:43 | 33.84705 | -6.66050 | 21754 ft | 306 kts | 228° |
| 2026-05-08 06:44 | 33.83193 | -6.67822 | 22314 ft | 308 kts | 228° |
| 2026-05-08 06:44 | 33.81632 | -6.69649 | 22880 ft | 310 kts | 228° |
| 2026-05-08 06:44 | 33.80081 | -6.71462 | 23445 ft | 312 kts | 227° |
| 2026-05-08 06:44 | 33.78519 | -6.73285 | 23923 ft | 314 kts | 228° |
| 2026-05-08 06:45 | 33.76968 | -6.75095 | 24426 ft | 314 kts | 228° |
| 2026-05-08 06:45 | 33.75399 | -6.76926 | 24898 ft | 314 kts | 228° |
| 2026-05-08 06:45 | 33.73826 | -6.78758 | 25412 ft | 314 kts | 228° |
| 2026-05-08 06:45 | 33.72251 | -6.80591 | 25922 ft | 314 kts | 229° |
| 2026-05-08 06:46 | 33.70702 | -6.82398 | 26420 ft | 314 kts | 229° |
| 2026-05-08 06:46 | 33.69126 | -6.84238 | 26919 ft | 314 kts | 229° |
| 2026-05-08 06:46 | 33.67552 | -6.86070 | 27393 ft | 315 kts | 229° |
| 2026-05-08 06:46 | 33.65987 | -6.87887 | 27856 ft | 316 kts | 229° |
| 2026-05-08 06:47 | 33.64410 | -6.89721 | 28324 ft | 317 kts | 230° |
| 2026-05-08 06:47 | 33.62803 | -6.91597 | 28472 ft | 326 kts | 230° |
| 2026-05-08 06:47 | 33.61151 | -6.93524 | 28610 ft | 335 kts | 230° |
| 2026-05-08 06:47 | 33.59451 | -6.95505 | 28754 ft | 343 kts | 229° |
| 2026-05-08 06:48 | 33.57735 | -6.97501 | 28891 ft | 351 kts | 229° |
| 2026-05-08 06:48 | 33.55959 | -6.99561 | 29022 ft | 358 kts | 229° |
| 2026-05-08 06:48 | 33.54145 | -7.01665 | 29164 ft | 365 kts | 229° |
| 2026-05-08 06:48 | 33.52294 | -7.03808 | 29320 ft | 371 kts | 229° |
| 2026-05-08 06:49 | 33.50445 | -7.05944 | 29580 ft | 374 kts | 229° |
| 2026-05-08 06:49 | 33.48562 | -7.08113 | 29889 ft | 376 kts | 229° |
| 2026-05-08 06:49 | 33.46677 | -7.10285 | 30195 ft | 376 kts | 229° |
| 2026-05-08 06:49 | 33.44782 | -7.12467 | 30509 ft | 376 kts | 229° |
| 2026-05-08 06:50 | 33.42891 | -7.14647 | 30780 ft | 378 kts | 229° |
| 2026-05-08 06:50 | 33.40996 | -7.16832 | 31081 ft | 378 kts | 229° |
| 2026-05-08 06:50 | 33.39743 | -7.18276 | 31336 ft | 377 kts | 229° |
| 2026-05-08 06:50 | 33.37243 | -7.21156 | 31842 ft | 374 kts | 229° |
| 2026-05-08 06:51 | 33.35370 | -7.23312 | 32223 ft | 373 kts | 230° |
| 2026-05-08 06:51 | 33.34123 | -7.24745 | 32467 ft | 372 kts | 230° |
| 2026-05-08 06:51 | 33.32259 | -7.26884 | 32834 ft | 371 kts | 230° |
| 2026-05-08 06:51 | 33.29798 | -7.29706 | 33332 ft | 369 kts | 230° |
| 2026-05-08 06:52 | 33.28546 | -7.31144 | 33591 ft | 367 kts | 230° |
| 2026-05-08 06:52 | 33.26705 | -7.33258 | 33975 ft | 366 kts | 230° |
| 2026-05-08 06:52 | 33.24896 | -7.35335 | 34279 ft | 365 kts | 230° |
| 2026-05-08 06:52 | 33.23063 | -7.37442 | 34579 ft | 364 kts | 230° |
| 2026-05-08 06:53 | 33.21232 | -7.39545 | 34849 ft | 364 kts | 230° |
| 2026-05-08 06:53 | 33.19421 | -7.41623 | 34944 ft | 363 kts | 230° |
| 2026-05-08 06:53 | 33.15789 | -7.45774 | 34955 ft | 359 kts | 230° |
| 2026-05-08 06:54 | 33.12164 | -7.49896 | 34963 ft | 360 kts | 227° |
| 2026-05-08 06:54 | 33.07914 | -7.53200 | 34970 ft | 369 kts | 219° |
| 2026-05-08 06:55 | 33.03477 | -7.56323 | 34965 ft | 369 kts | 219° |
| 2026-05-08 06:55 | 32.99072 | -7.59416 | 34964 ft | 369 kts | 219° |
| 2026-05-08 06:56 | 32.94635 | -7.62539 | 34970 ft | 370 kts | 219° |
| 2026-05-08 06:56 | 32.90194 | -7.65660 | 34935 ft | 370 kts | 219° |
| 2026-05-08 06:57 | 32.85787 | -7.68753 | 34936 ft | 370 kts | 219° |
| 2026-05-08 06:57 | 32.81346 | -7.71861 | 34952 ft | 370 kts | 219° |
| 2026-05-08 06:58 | 32.76905 | -7.74971 | 34951 ft | 370 kts | 219° |
| 2026-05-08 06:58 | 32.72481 | -7.78063 | 34957 ft | 370 kts | 219° |
| 2026-05-08 06:59 | 32.68043 | -7.81164 | 34959 ft | 370 kts | 219° |
| 2026-05-08 06:59 | 32.63602 | -7.84267 | 34914 ft | 370 kts | 219° |
| 2026-05-08 07:00 | 32.59184 | -7.87349 | 34929 ft | 370 kts | 219° |
| 2026-05-08 07:00 | 32.54730 | -7.90450 | 34940 ft | 370 kts | 219° |
| 2026-05-08 07:01 | 32.50304 | -7.93520 | 34943 ft | 370 kts | 219° |
| 2026-05-08 07:01 | 32.45845 | -7.96613 | 34949 ft | 371 kts | 219° |
| 2026-05-08 07:02 | 32.41389 | -7.99708 | 34956 ft | 371 kts | 219° |
| 2026-05-08 07:02 | 32.36953 | -8.02784 | 34968 ft | 371 kts | 219° |
| 2026-05-08 07:03 | 32.32496 | -8.05868 | 34933 ft | 371 kts | 219° |
| 2026-05-08 07:03 | 32.28031 | -8.08947 | 34942 ft | 372 kts | 219° |
| 2026-05-08 07:04 | 32.23588 | -8.12018 | 34942 ft | 372 kts | 219° |
| 2026-05-08 07:04 | 32.19112 | -8.15106 | 34946 ft | 372 kts | 219° |
| 2026-05-08 07:05 | 32.14635 | -8.18195 | 34954 ft | 372 kts | 219° |
| 2026-05-08 07:05 | 32.10845 | -8.22095 | 34960 ft | 356 kts | 237° |
| 2026-05-08 07:06 | 32.07823 | -8.26720 | 34963 ft | 356 kts | 237° |
| 2026-05-08 07:06 | 32.04802 | -8.31322 | 34936 ft | 357 kts | 236° |
| 2026-05-08 07:07 | 32.01751 | -8.35947 | 34955 ft | 358 kts | 236° |
| 2026-05-08 07:07 | 31.98684 | -8.40590 | 34955 ft | 358 kts | 236° |
| 2026-05-08 07:08 | 31.95634 | -8.45208 | 34955 ft | 359 kts | 236° |
| 2026-05-08 07:08 | 31.92570 | -8.49849 | 34960 ft | 359 kts | 236° |
| 2026-05-08 07:09 | 31.89496 | -8.54490 | 34965 ft | 359 kts | 236° |
| 2026-05-08 07:09 | 31.86436 | -8.59106 | 34966 ft | 359 kts | 236° |
| 2026-05-08 07:10 | 31.83358 | -8.63749 | 34967 ft | 359 kts | 236° |
| 2026-05-08 07:10 | 31.80279 | -8.68386 | 34970 ft | 359 kts | 236° |
| 2026-05-08 07:11 | 31.77197 | -8.73017 | 34934 ft | 359 kts | 236° |
| 2026-05-08 07:11 | 31.74128 | -8.77630 | 34938 ft | 361 kts | 236° |
| 2026-05-08 07:12 | 31.71023 | -8.82286 | 34945 ft | 362 kts | 236° |
| 2026-05-08 07:12 | 31.67925 | -8.86925 | 34951 ft | 362 kts | 236° |
| 2026-05-08 07:13 | 31.64805 | -8.91596 | 34953 ft | 363 kts | 236° |
| 2026-05-08 07:13 | 31.61686 | -8.96270 | 34963 ft | 363 kts | 236° |
| 2026-05-08 07:14 | 31.58579 | -9.00906 | 34964 ft | 363 kts | 236° |
| 2026-05-08 07:14 | 31.55447 | -9.05562 | 34967 ft | 363 kts | 236° |
| 2026-05-08 07:15 | 31.52318 | -9.10214 | 34975 ft | 363 kts | 236° |
| 2026-05-08 07:15 | 31.49184 | -9.14878 | 34974 ft | 363 kts | 236° |
| 2026-05-08 07:16 | 31.46056 | -9.19535 | 34942 ft | 364 kts | 236° |
| 2026-05-08 07:16 | 31.42932 | -9.24176 | 34948 ft | 365 kts | 236° |
| 2026-05-08 07:17 | 31.39777 | -9.28853 | 34956 ft | 366 kts | 236° |
| 2026-05-08 07:17 | 31.36608 | -9.33544 | 34960 ft | 367 kts | 236° |
| 2026-05-08 07:18 | 31.33456 | -9.38198 | 34962 ft | 367 kts | 236° |
| 2026-05-08 07:18 | 31.30283 | -9.42879 | 34966 ft | 367 kts | 236° |
| 2026-05-08 07:19 | 31.27121 | -9.47544 | 34971 ft | 367 kts | 236° |
| 2026-05-08 07:19 | 31.23942 | -9.52231 | 34971 ft | 367 kts | 235° |
| 2026-05-08 07:20 | 31.20759 | -9.56907 | 34971 ft | 367 kts | 235° |
| 2026-05-08 07:20 | 31.17594 | -9.61553 | 34974 ft | 367 kts | 235° |
| 2026-05-08 07:21 | 31.14404 | -9.66235 | 34936 ft | 368 kts | 235° |
| 2026-05-08 07:21 | 31.11211 | -9.70926 | 34960 ft | 369 kts | 235° |
| 2026-05-08 07:22 | 31.08009 | -9.75616 | 34965 ft | 369 kts | 235° |
| 2026-05-08 07:22 | 31.04814 | -9.80288 | 34969 ft | 370 kts | 235° |
| 2026-05-08 07:23 | 31.01593 | -9.84981 | 35006 ft | 370 kts | 235° |
| 2026-05-08 07:23 | 30.98324 | -9.89642 | 34996 ft | 372 kts | 234° |
| 2026-05-08 07:24 | 30.95086 | -9.94296 | 35003 ft | 371 kts | 236° |
| 2026-05-08 07:24 | 30.91916 | -9.99034 | 35014 ft | 370 kts | 236° |
| 2026-05-08 07:25 | 30.88725 | -10.03749 | 35016 ft | 370 kts | 235° |
| 2026-05-08 07:26 | 30.83899 | -10.10730 | 34968 ft | 370 kts | 235° |
| 2026-05-08 07:26 | 30.80664 | -10.15413 | 34969 ft | 371 kts | 235° |
| 2026-05-08 07:27 | 30.77448 | -10.20075 | 34980 ft | 372 kts | 235° |
| 2026-05-08 07:27 | 30.74208 | -10.24769 | 35001 ft | 372 kts | 235° |
| 2026-05-08 07:28 | 30.70957 | -10.29460 | 35003 ft | 372 kts | 234° |
| 2026-05-08 07:28 | 30.67703 | -10.34146 | 35006 ft | 372 kts | 234° |
| 2026-05-08 07:29 | 30.64462 | -10.38815 | 35006 ft | 372 kts | 234° |
| 2026-05-08 07:29 | 30.61214 | -10.43502 | 35010 ft | 372 kts | 235° |
| 2026-05-08 07:30 | 30.57982 | -10.48152 | 35007 ft | 372 kts | 234° |
| 2026-05-08 07:30 | 30.54721 | -10.52834 | 35009 ft | 372 kts | 234° |
| 2026-05-08 07:31 | 30.51463 | -10.57504 | 34982 ft | 372 kts | 234° |
| 2026-05-08 07:31 | 30.48212 | -10.62159 | 34986 ft | 373 kts | 234° |
| 2026-05-08 07:32 | 30.44929 | -10.66850 | 34990 ft | 374 kts | 234° |
| 2026-05-08 07:32 | 30.41671 | -10.71495 | 34994 ft | 374 kts | 234° |
| 2026-05-08 07:33 | 30.38384 | -10.76184 | 34997 ft | 374 kts | 234° |
| 2026-05-08 07:33 | 30.35104 | -10.80871 | 34998 ft | 374 kts | 234° |
| 2026-05-08 07:34 | 30.31835 | -10.85532 | 35000 ft | 374 kts | 234° |
| 2026-05-08 07:34 | 30.28547 | -10.90208 | 35000 ft | 374 kts | 234° |
| 2026-05-08 07:35 | 30.25277 | -10.94848 | 35016 ft | 374 kts | 234° |
| 2026-05-08 07:35 | 30.21985 | -10.99518 | 35020 ft | 374 kts | 234° |
| 2026-05-08 07:36 | 30.18715 | -11.04159 | 35015 ft | 373 kts | 234° |
| 2026-05-08 07:36 | 30.15427 | -11.08812 | 35015 ft | 373 kts | 234° |
| 2026-05-08 07:37 | 30.12132 | -11.13462 | 35014 ft | 373 kts | 234° |
| 2026-05-08 07:37 | 30.08860 | -11.18082 | 35012 ft | 373 kts | 234° |
| 2026-05-08 07:38 | 30.05572 | -11.22728 | 35014 ft | 373 kts | 234° |
| 2026-05-08 07:38 | 30.02297 | -11.27346 | 35014 ft | 373 kts | 234° |
| 2026-05-08 07:39 | 29.99554 | -11.31202 | 35015 ft | 373 kts | 234° |
| 2026-05-08 07:39 | 29.96252 | -11.35830 | 35015 ft | 373 kts | 234° |
| 2026-05-08 07:40 | 29.92419 | -11.41208 | 35011 ft | 373 kts | 234° |
| 2026-05-08 07:40 | 29.89682 | -11.45057 | 34984 ft | 373 kts | 234° |
| 2026-05-08 07:41 | 29.86381 | -11.49685 | 34985 ft | 373 kts | 234° |
| 2026-05-08 07:41 | 29.83098 | -11.54282 | 34989 ft | 374 kts | 234° |
| 2026-05-08 07:42 | 29.79779 | -11.58919 | 34996 ft | 374 kts | 234° |
| 2026-05-08 07:42 | 29.76468 | -11.63551 | 35004 ft | 374 kts | 234° |
| 2026-05-08 07:43 | 29.73165 | -11.68153 | 35001 ft | 374 kts | 234° |
| 2026-05-08 07:43 | 29.69846 | -11.72773 | 35016 ft | 374 kts | 234° |
| 2026-05-08 07:44 | 29.66529 | -11.77392 | 35014 ft | 374 kts | 234° |
| 2026-05-08 07:44 | 29.63229 | -11.81990 | 35016 ft | 376 kts | 234° |
| 2026-05-08 07:45 | 29.59829 | -11.86715 | 35020 ft | 390 kts | 234° |
| 2026-05-08 07:45 | 29.56319 | -11.91572 | 35004 ft | 402 kts | 234° |
| 2026-05-08 07:46 | 29.52687 | -11.96599 | 35020 ft | 414 kts | 234° |
| 2026-05-08 07:46 | 29.50865 | -11.99123 | 35218 ft | 408 kts | 234° |
| 2026-05-08 07:46 | 29.49102 | -12.01548 | 35589 ft | 382 kts | 234° |
| 2026-05-08 07:46 | 29.47434 | -12.03833 | 35930 ft | 371 kts | 234° |
| 2026-05-08 07:47 | 29.45767 | -12.06136 | 35777 ft | 381 kts | 234° |
| 2026-05-08 07:47 | 29.44080 | -12.08476 | 35581 ft | 378 kts | 234° |
| 2026-05-08 07:47 | 29.42407 | -12.10792 | 35382 ft | 376 kts | 234° |
| 2026-05-08 07:47 | 29.40736 | -12.13102 | 35195 ft | 375 kts | 234° |
| 2026-05-08 07:48 | 29.39090 | -12.15376 | 35029 ft | 375 kts | 234° |
| 2026-05-08 07:48 | 29.35745 | -12.19978 | 35021 ft | 375 kts | 234° |
| 2026-05-08 07:49 | 29.32399 | -12.24579 | 35019 ft | 375 kts | 234° |
| 2026-05-08 07:49 | 29.29049 | -12.29176 | 35021 ft | 375 kts | 234° |
| 2026-05-08 07:50 | 29.25723 | -12.33740 | 35026 ft | 375 kts | 234° |
| 2026-05-08 07:50 | 29.22373 | -12.38334 | 34984 ft | 375 kts | 234° |
| 2026-05-08 07:51 | 29.19021 | -12.42937 | 35005 ft | 376 kts | 234° |
| 2026-05-08 07:51 | 29.15678 | -12.47513 | 35009 ft | 376 kts | 234° |
| 2026-05-08 07:52 | 29.12307 | -12.52116 | 35017 ft | 377 kts | 234° |
| 2026-05-08 07:52 | 29.08937 | -12.56714 | 35019 ft | 377 kts | 234° |
| 2026-05-08 07:53 | 29.05562 | -12.61313 | 35019 ft | 377 kts | 234° |
| 2026-05-08 07:53 | 29.02203 | -12.65878 | 35024 ft | 377 kts | 234° |
| 2026-05-08 07:54 | 28.98817 | -12.70485 | 35030 ft | 377 kts | 234° |
| 2026-05-08 07:54 | 28.95456 | -12.75056 | 35033 ft | 378 kts | 234° |
| 2026-05-08 07:55 | 28.92070 | -12.79650 | 34992 ft | 378 kts | 234° |
| 2026-05-08 07:55 | 28.89169 | -12.84595 | 35001 ft | 374 kts | 243° |
| 2026-05-08 07:56 | 28.86657 | -12.89803 | 35007 ft | 374 kts | 243° |
| 2026-05-08 07:56 | 28.84149 | -12.94976 | 35014 ft | 375 kts | 243° |
| 2026-05-08 07:57 | 28.81612 | -13.00186 | 35020 ft | 375 kts | 243° |
| 2026-05-08 07:57 | 28.79079 | -13.05385 | 35020 ft | 375 kts | 243° |
| 2026-05-08 07:58 | 28.76561 | -13.10560 | 35021 ft | 375 kts | 243° |
| 2026-05-08 07:58 | 28.74025 | -13.15768 | 35032 ft | 375 kts | 243° |
| 2026-05-08 07:59 | 28.71483 | -13.20973 | 35033 ft | 375 kts | 243° |
| 2026-05-08 07:59 | 28.68951 | -13.26140 | 35035 ft | 375 kts | 243° |
| 2026-05-08 08:00 | 28.66407 | -13.31345 | 35036 ft | 375 kts | 243° |
| 2026-05-08 08:00 | 28.63877 | -13.36507 | 35038 ft | 375 kts | 243° |
| 2026-05-08 08:01 | 28.61340 | -13.41687 | 35040 ft | 374 kts | 243° |
| 2026-05-08 08:01 | 28.58813 | -13.46839 | 35036 ft | 374 kts | 243° |
| 2026-05-08 08:02 | 28.56267 | -13.52022 | 35002 ft | 375 kts | 243° |
| 2026-05-08 08:02 | 28.53708 | -13.57209 | 35000 ft | 376 kts | 243° |
| 2026-05-08 08:03 | 28.51157 | -13.62368 | 35001 ft | 376 kts | 243° |
| 2026-05-08 08:03 | 28.48585 | -13.67561 | 34999 ft | 376 kts | 243° |
| 2026-05-08 08:04 | 28.46018 | -13.72756 | 34998 ft | 376 kts | 243° |
| 2026-05-08 08:04 | 28.43478 | -13.77909 | 34996 ft | 376 kts | 243° |
| 2026-05-08 08:05 | 28.40907 | -13.83097 | 34992 ft | 375 kts | 243° |
| 2026-05-08 08:05 | 28.38349 | -13.88244 | 35013 ft | 375 kts | 243° |
| 2026-05-08 08:06 | 28.35782 | -13.93406 | 35014 ft | 375 kts | 243° |
| 2026-05-08 08:06 | 28.33210 | -13.98589 | 35016 ft | 376 kts | 243° |
| 2026-05-08 08:07 | 28.30637 | -14.03763 | 35016 ft | 376 kts | 243° |
| 2026-05-08 08:07 | 28.28061 | -14.08916 | 35026 ft | 376 kts | 243° |
| 2026-05-08 08:08 | 28.25476 | -14.14083 | 35028 ft | 376 kts | 243° |
| 2026-05-08 08:08 | 28.22908 | -14.19217 | 35033 ft | 377 kts | 243° |
| 2026-05-08 08:09 | 28.20317 | -14.24399 | 35001 ft | 377 kts | 243° |
| 2026-05-08 08:09 | 28.17728 | -14.29573 | 35008 ft | 377 kts | 243° |
| 2026-05-08 08:10 | 28.15145 | -14.34722 | 35021 ft | 377 kts | 243° |
| 2026-05-08 08:10 | 28.12557 | -14.39879 | 35030 ft | 378 kts | 243° |
| 2026-05-08 08:11 | 28.09952 | -14.45060 | 35034 ft | 378 kts | 243° |
| 2026-05-08 08:11 | 28.07340 | -14.50242 | 35040 ft | 378 kts | 243° |
| 2026-05-08 08:12 | 28.04744 | -14.55387 | 35047 ft | 378 kts | 243° |
| 2026-05-08 08:12 | 28.02118 | -14.60579 | 35054 ft | 378 kts | 243° |
| 2026-05-08 08:13 | 27.99785 | -14.65880 | 35048 ft | 375 kts | 254° |
| 2026-05-08 08:13 | 27.98544 | -14.71572 | 34866 ft | 376 kts | 257° |
| 2026-05-08 08:13 | 27.97922 | -14.74478 | 33723 ft | 386 kts | 256° |
| 2026-05-08 08:14 | 27.97269 | -14.77479 | 32641 ft | 394 kts | 256° |
| 2026-05-08 08:14 | 27.96616 | -14.80465 | 32145 ft | 386 kts | 256° |
| 2026-05-08 08:14 | 27.95975 | -14.83394 | 31645 ft | 380 kts | 256° |
| 2026-05-08 08:14 | 27.95346 | -14.86276 | 31144 ft | 374 kts | 256° |
| 2026-05-08 08:15 | 27.94734 | -14.89082 | 30658 ft | 369 kts | 256° |
| 2026-05-08 08:15 | 27.94123 | -14.91895 | 30173 ft | 364 kts | 255° |
| 2026-05-08 08:15 | 27.93520 | -14.94664 | 29635 ft | 360 kts | 256° |
| 2026-05-08 08:15 | 27.92932 | -14.97364 | 29175 ft | 353 kts | 256° |
| 2026-05-08 08:16 | 27.92350 | -15.00045 | 28705 ft | 347 kts | 256° |
| 2026-05-08 08:16 | 27.91774 | -15.02688 | 28260 ft | 342 kts | 256° |
| 2026-05-08 08:16 | 27.91207 | -15.05274 | 27823 ft | 336 kts | 256° |
| 2026-05-08 08:16 | 27.90655 | -15.07793 | 27402 ft | 331 kts | 256° |
| 2026-05-08 08:17 | 27.90105 | -15.10306 | 26986 ft | 326 kts | 256° |
| 2026-05-08 08:17 | 27.89562 | -15.12784 | 26561 ft | 322 kts | 256° |
| 2026-05-08 08:17 | 27.89029 | -15.15220 | 26177 ft | 318 kts | 256° |
| 2026-05-08 08:17 | 27.88495 | -15.17650 | 25785 ft | 316 kts | 256° |
| 2026-05-08 08:18 | 27.87965 | -15.20056 | 25409 ft | 315 kts | 256° |
| 2026-05-08 08:18 | 27.87435 | -15.22455 | 25035 ft | 314 kts | 256° |
| 2026-05-08 08:18 | 27.86910 | -15.24846 | 24657 ft | 313 kts | 256° |
| 2026-05-08 08:18 | 27.86386 | -15.27232 | 24281 ft | 312 kts | 256° |
| 2026-05-08 08:19 | 27.85868 | -15.29576 | 23910 ft | 311 kts | 256° |
| 2026-05-08 08:19 | 27.85346 | -15.31944 | 23529 ft | 310 kts | 256° |
| 2026-05-08 08:19 | 27.84827 | -15.34300 | 23104 ft | 308 kts | 256° |
| 2026-05-08 08:19 | 27.84307 | -15.36654 | 22720 ft | 307 kts | 256° |
| 2026-05-08 08:20 | 27.83798 | -15.38956 | 22519 ft | 305 kts | 256° |
| 2026-05-08 08:20 | 27.83315 | -15.41295 | 22421 ft | 306 kts | 261° |
| 2026-05-08 08:20 | 27.83239 | -15.43699 | 22283 ft | 308 kts | 272° |
| 2026-05-08 08:20 | 27.83677 | -15.46107 | 21721 ft | 316 kts | 284° |
| 2026-05-08 08:21 | 27.84381 | -15.48465 | 21245 ft | 316 kts | 284° |
| 2026-05-08 08:21 | 27.85078 | -15.50802 | 20823 ft | 313 kts | 285° |
| 2026-05-08 08:21 | 27.85772 | -15.53143 | 20427 ft | 312 kts | 285° |
| 2026-05-08 08:21 | 27.86457 | -15.55462 | 20034 ft | 310 kts | 284° |
| 2026-05-08 08:22 | 27.87128 | -15.57744 | 19632 ft | 309 kts | 284° |
| 2026-05-08 08:22 | 27.87808 | -15.60058 | 19205 ft | 309 kts | 284° |
| 2026-05-08 08:22 | 27.88480 | -15.62356 | 18843 ft | 307 kts | 284° |
| 2026-05-08 08:22 | 27.89150 | -15.64652 | 18385 ft | 306 kts | 284° |
| 2026-05-08 08:23 | 27.89808 | -15.66905 | 18000 ft | 305 kts | 284° |
| 2026-05-08 08:23 | 27.90472 | -15.69177 | 17584 ft | 304 kts | 285° |
| 2026-05-08 08:23 | 27.91134 | -15.71449 | 17203 ft | 303 kts | 285° |
| 2026-05-08 08:23 | 27.91792 | -15.73710 | 16820 ft | 302 kts | 285° |
| 2026-05-08 08:24 | 27.92448 | -15.75966 | 16438 ft | 301 kts | 285° |
| 2026-05-08 08:24 | 27.93101 | -15.78212 | 16037 ft | 300 kts | 285° |
| 2026-05-08 08:24 | 27.93744 | -15.80424 | 15667 ft | 300 kts | 285° |
| 2026-05-08 08:24 | 27.94395 | -15.82660 | 15310 ft | 299 kts | 285° |
| 2026-05-08 08:25 | 27.95046 | -15.84893 | 14953 ft | 298 kts | 285° |
| 2026-05-08 08:25 | 27.95697 | -15.87127 | 14594 ft | 298 kts | 286° |
| 2026-05-08 08:25 | 27.96345 | -15.89355 | 14246 ft | 297 kts | 286° |
| 2026-05-08 08:25 | 27.96990 | -15.91581 | 13891 ft | 297 kts | 286° |
| 2026-05-08 08:26 | 27.97633 | -15.93802 | 13511 ft | 296 kts | 286° |
| 2026-05-08 08:26 | 27.98264 | -15.95977 | 13266 ft | 288 kts | 286° |
| 2026-05-08 08:26 | 27.98871 | -15.98064 | 13122 ft | 269 kts | 286° |
| 2026-05-08 08:26 | 27.99284 | -16.00073 | 12751 ft | 258 kts | 271° |
| 2026-05-08 08:27 | 27.99100 | -16.02067 | 12255 ft | 254 kts | 253° |
| 2026-05-08 08:27 | 27.98443 | -16.03920 | 11715 ft | 253 kts | 247° |
| 2026-05-08 08:27 | 27.97762 | -16.05728 | 11201 ft | 252 kts | 247° |
| 2026-05-08 08:27 | 27.97084 | -16.07547 | 10686 ft | 251 kts | 248° |
| 2026-05-08 08:28 | 27.96409 | -16.09364 | 10185 ft | 249 kts | 248° |
| 2026-05-08 08:28 | 27.95740 | -16.11168 | 9655 ft | 248 kts | 248° |
| 2026-05-08 08:28 | 27.95076 | -16.12961 | 9109 ft | 245 kts | 248° |
| 2026-05-08 08:28 | 27.94418 | -16.14731 | 8597 ft | 242 kts | 247° |
| 2026-05-08 08:29 | 27.93503 | -16.16256 | 8206 ft | 237 kts | 221° |
| 2026-05-08 08:29 | 27.92011 | -16.17044 | 7944 ft | 242 kts | 189° |
| 2026-05-08 08:29 | 27.90335 | -16.16742 | 7892 ft | 253 kts | 159° |
| 2026-05-08 08:29 | 27.88738 | -16.15855 | 7838 ft | 255 kts | 159° |
| 2026-05-08 08:30 | 27.87660 | -16.15326 | 7797 ft | 255 kts | 161° |
| 2026-05-08 08:30 | 27.86015 | -16.14577 | 7735 ft | 254 kts | 162° |
| 2026-05-08 08:30 | 27.82193 | -16.12863 | 7559 ft | 254 kts | 162° |
| 2026-05-08 08:31 | 27.80555 | -16.12108 | 7438 ft | 253 kts | 161° |
| 2026-05-08 08:31 | 27.79476 | -16.11607 | 7360 ft | 253 kts | 161° |
| 2026-05-08 08:31 | 27.77847 | -16.10847 | 7237 ft | 253 kts | 161° |
| 2026-05-08 08:31 | 27.76220 | -16.10088 | 7110 ft | 252 kts | 161° |
| 2026-05-08 08:32 | 27.74598 | -16.09330 | 7002 ft | 252 kts | 161° |
| 2026-05-08 08:32 | 27.72961 | -16.08629 | 6874 ft | 249 kts | 171° |
| 2026-05-08 08:32 | 27.71268 | -16.08505 | 6754 ft | 241 kts | 192° |
| 2026-05-08 08:32 | 27.69696 | -16.09047 | 6625 ft | 234 kts | 212° |
| 2026-05-08 08:33 | 27.68436 | -16.10120 | 6511 ft | 228 kts | 231° |
| 2026-05-08 08:33 | 27.67573 | -16.11594 | 6392 ft | 225 kts | 249° |
| 2026-05-08 08:33 | 27.67194 | -16.13293 | 6262 ft | 224 kts | 266° |
| 2026-05-08 08:33 | 27.67325 | -16.15036 | 6135 ft | 224 kts | 283° |
| 2026-05-08 08:34 | 27.67950 | -16.16652 | 6001 ft | 227 kts | 301° |
| 2026-05-08 08:34 | 27.69030 | -16.17959 | 5882 ft | 231 kts | 320° |
| 2026-05-08 08:34 | 27.70470 | -16.18795 | 5760 ft | 236 kts | 339° |
| 2026-05-08 08:34 | 27.72095 | -16.19115 | 5635 ft | 238 kts | 348° |
| 2026-05-08 08:35 | 27.73717 | -16.19354 | 5509 ft | 237 kts | 347° |
| 2026-05-08 08:35 | 27.75293 | -16.19827 | 5378 ft | 233 kts | 334° |
| 2026-05-08 08:35 | 27.76788 | -16.20546 | 5259 ft | 232 kts | 333° |
| 2026-05-08 08:35 | 27.78278 | -16.21256 | 5126 ft | 232 kts | 333° |
| 2026-05-08 08:36 | 27.79769 | -16.21959 | 5003 ft | 231 kts | 333° |
| 2026-05-08 08:36 | 27.81257 | -16.22658 | 4879 ft | 231 kts | 333° |
| 2026-05-08 08:36 | 27.82724 | -16.23346 | 4763 ft | 231 kts | 334° |
| 2026-05-08 08:36 | 27.84210 | -16.24045 | 4626 ft | 230 kts | 334° |
| 2026-05-08 08:37 | 27.85696 | -16.24747 | 4499 ft | 230 kts | 334° |
| 2026-05-08 08:37 | 27.87152 | -16.25437 | 4362 ft | 229 kts | 334° |
| 2026-05-08 08:37 | 27.88626 | -16.26132 | 4243 ft | 229 kts | 334° |
| 2026-05-08 08:37 | 27.90098 | -16.26826 | 4128 ft | 229 kts | 334° |
| 2026-05-08 08:38 | 27.91573 | -16.27524 | 3986 ft | 229 kts | 334° |
| 2026-05-08 08:38 | 27.93045 | -16.28219 | 3863 ft | 229 kts | 334° |
| 2026-05-08 08:38 | 27.94501 | -16.28907 | 3740 ft | 228 kts | 334° |
| 2026-05-08 08:38 | 27.95968 | -16.29599 | 3610 ft | 228 kts | 334° |
| 2026-05-08 08:39 | 27.97441 | -16.30294 | 3496 ft | 228 kts | 335° |
| 2026-05-08 08:39 | 27.98898 | -16.30984 | 3371 ft | 230 kts | 335° |
| 2026-05-08 08:39 | 28.00376 | -16.31684 | 3250 ft | 230 kts | 335° |
| 2026-05-08 08:39 | 28.01856 | -16.32385 | 3123 ft | 230 kts | 335° |
| 2026-05-08 08:40 | 28.03335 | -16.33088 | 3001 ft | 230 kts | 335° |
| 2026-05-08 08:40 | 28.04793 | -16.33781 | 2873 ft | 230 kts | 336° |
| 2026-05-08 08:40 | 28.06273 | -16.34486 | 2749 ft | 229 kts | 335° |
| 2026-05-08 08:40 | 28.07738 | -16.35183 | 2613 ft | 224 kts | 334° |
| 2026-05-08 08:41 | 28.09161 | -16.35859 | 2481 ft | 219 kts | 335° |
| 2026-05-08 08:41 | 28.10411 | -16.36726 | 2464 ft | 202 kts | 308° |
| 2026-05-08 08:41 | 28.10922 | -16.38115 | 2484 ft | 190 kts | 270° |
| 2026-05-08 08:41 | 28.10608 | -16.39533 | 2362 ft | 185 kts | 248° |
| 2026-05-08 08:42 | 28.10128 | -16.40885 | 2286 ft | 185 kts | 249° |
| 2026-05-08 08:42 | 28.09664 | -16.42220 | 2236 ft | 184 kts | 249° |
| 2026-05-08 08:42 | 28.09195 | -16.43572 | 2237 ft | 184 kts | 249° |
| 2026-05-08 08:42 | 28.08730 | -16.44912 | 2247 ft | 177 kts | 249° |
| 2026-05-08 08:43 | 28.08294 | -16.46170 | 2072 ft | 171 kts | 249° |
| 2026-05-08 08:43 | 28.07860 | -16.47421 | 1785 ft | 170 kts | 249° |
| 2026-05-08 08:43 | 28.07435 | -16.48645 | 1542 ft | 163 kts | 249° |
| 2026-05-08 08:43 | 28.07036 | -16.49797 | 1333 ft | 151 kts | 249° |
| 2026-05-08 08:44 | 28.06662 | -16.50871 | 1123 ft | 142 kts | 249° |
| 2026-05-08 08:44 | 28.06294 | -16.51901 | 916 ft | 140 kts | 246° |
| 2026-05-08 08:44 | 28.05893 | -16.52894 | 804 ft | 137 kts | 252° |
| 2026-05-08 08:44 | 28.05567 | -16.53906 | 613 ft | 137 kts | 256° |
| 2026-05-08 08:45 | 28.05273 | -16.54916 | 426 ft | 135 kts | 246° |
| 2026-05-08 08:45 | 28.04927 | -16.55886 | 246 ft | 130 kts | 254° |
| 2026-05-08 08:45 | 28.04633 | -16.56757 | 205 ft | 98 kts | 248° |
| 2026-05-08 08:45 | 28.04436 | -16.57300 | 196 ft | 52 kts | 248° |
| 2026-05-08 08:46 | 28.04353 | -16.57544 | 197 ft | 27 kts | 250° |
| 2026-05-08 08:46 | 28.04310 | -16.57752 | 190 ft | 27 kts | 267° |
| 2026-05-08 08:46 | 28.04294 | -16.57976 | 210 ft | 36 kts | 265° |
| 2026-05-08 08:46 | 28.04324 | -16.58158 | 223 ft | 24 kts | 306° |
| 2026-05-08 08:47 | 28.04371 | -16.58190 | 223 ft | 3 kts | 5° |
| 2026-05-08 08:47 | 28.04429 | -16.58127 | 223 ft | 20 kts | 39° |
| 2026-05-08 08:47 | 28.04501 | -16.58029 | 224 ft | 14 kts | 64° |
| 2026-05-08 08:47 | 28.04555 | -16.57958 | 225 ft | 12 kts | 1° |
| 2026-05-08 08:48 | 28.04607 | -16.57969 | 226 ft | 2 kts | 351° |
| 2026-05-08 08:48 | 28.04610 | -16.57969 | 226 ft | 0 kts | 351° |